sensor_id;sensor_type;location;lat;lon;timestamp;P1;durP1;ratioP1;P2;durP2;ratioP2
38783;SDS011;24531;45.502;12.238;2022-11-23T00:00:57;3.40;;;2.50;;
38783;SDS011;24531;45.502;12.238;2022-11-23T00:03:23;3.28;;;2.40;;
38783;SDS011;24531;45.502;12.238;2022-11-23T00:05:49;3.35;;;1.83;;
38783;SDS011;24531;45.502;12.238;2022-11-23T00:08:14;2.13;;;1.67;;
38783;SDS011;24531;45.502;12.238;2022-11-23T00:10:40;1.70;;;1.60;;
38783;SDS011;24531;45.502;12.238;2022-11-23T00:13:06;1.20;;;1.10;;
38783;SDS011;24531;45.502;12.238;2022-11-23T00:15:32;5.63;;;1.40;;
38783;SDS011;24531;45.502;12.238;2022-11-23T00:17:57;2.03;;;1.13;;
38783;SDS011;24531;45.502;12.238;2022-11-23T00:20:24;2.25;;;1.38;;
38783;SDS011;24531;45.502;12.238;2022-11-23T00:22:50;2.03;;;1.15;;
38783;SDS011;24531;45.502;12.238;2022-11-23T00:25:16;1.30;;;1.20;;
38783;SDS011;24531;45.502;12.238;2022-11-23T00:27:41;2.55;;;1.15;;
38783;SDS011;24531;45.502;12.238;2022-11-23T00:30:07;2.88;;;1.33;;
38783;SDS011;24531;45.502;12.238;2022-11-23T00:32:33;2.85;;;1.35;;
38783;SDS011;24531;45.502;12.238;2022-11-23T00:34:59;1.98;;;1.33;;
38783;SDS011;24531;45.502;12.238;2022-11-23T00:37:24;5.03;;;1.85;;
38783;SDS011;24531;45.502;12.238;2022-11-23T00:39:50;1.95;;;1.08;;
38783;SDS011;24531;45.502;12.238;2022-11-23T00:42:15;1.88;;;1.13;;
38783;SDS011;24531;45.502;12.238;2022-11-23T00:44:41;2.53;;;1.25;;
38783;SDS011;24531;45.502;12.238;2022-11-23T00:47:07;0.82;;;0.82;;
38783;SDS011;24531;45.502;12.238;2022-11-23T00:49:32;1.45;;;1.00;;
38783;SDS011;24531;45.502;12.238;2022-11-23T00:51:58;0.98;;;0.70;;
38783;SDS011;24531;45.502;12.238;2022-11-23T00:54:23;1.95;;;1.50;;
38783;SDS011;24531;45.502;12.238;2022-11-23T00:56:49;1.35;;;1.10;;
38783;SDS011;24531;45.502;12.238;2022-11-23T00:59:14;1.08;;;0.80;;
38783;SDS011;24531;45.502;12.238;2022-11-23T01:01:40;1.38;;;0.85;;
38783;SDS011;24531;45.502;12.238;2022-11-23T01:04:06;1.52;;;0.80;;
38783;SDS011;24531;45.502;12.238;2022-11-23T01:06:34;1.13;;;0.80;;
38783;SDS011;24531;45.502;12.238;2022-11-23T01:09:10;1.40;;;0.90;;
38783;SDS011;24531;45.502;12.238;2022-11-23T01:11:38;1.63;;;1.00;;
38783;SDS011;24531;45.502;12.238;2022-11-23T01:14:04;1.75;;;0.60;;
38783;SDS011;24531;45.502;12.238;2022-11-23T01:16:34;0.70;;;0.70;;
38783;SDS011;24531;45.502;12.238;2022-11-23T01:19:05;1.65;;;0.75;;
38783;SDS011;24531;45.502;12.238;2022-11-23T01:21:33;2.25;;;0.55;;
38783;SDS011;24531;45.502;12.238;2022-11-23T01:23:59;1.02;;;0.50;;
38783;SDS011;24531;45.502;12.238;2022-11-23T01:26:28;1.77;;;0.70;;
38783;SDS011;24531;45.502;12.238;2022-11-23T01:28:53;1.50;;;0.70;;
38783;SDS011;24531;45.502;12.238;2022-11-23T01:31:20;1.15;;;0.98;;
38783;SDS011;24531;45.502;12.238;2022-11-23T01:33:51;1.25;;;0.70;;
38783;SDS011;24531;45.502;12.238;2022-11-23T01:36:22;1.52;;;1.00;;
38783;SDS011;24531;45.502;12.238;2022-11-23T01:38:49;1.58;;;0.77;;
38783;SDS011;24531;45.502;12.238;2022-11-23T01:41:16;1.15;;;0.93;;
38783;SDS011;24531;45.502;12.238;2022-11-23T01:43:44;1.13;;;0.73;;
38783;SDS011;24531;45.502;12.238;2022-11-23T01:46:10;2.65;;;0.90;;
38783;SDS011;24531;45.502;12.238;2022-11-23T01:48:38;1.52;;;0.70;;
38783;SDS011;24531;45.502;12.238;2022-11-23T01:51:05;2.72;;;0.85;;
38783;SDS011;24531;45.502;12.238;2022-11-23T01:53:36;1.48;;;1.02;;
38783;SDS011;24531;45.502;12.238;2022-11-23T01:56:04;0.65;;;0.60;;
38783;SDS011;24531;45.502;12.238;2022-11-23T01:58:32;1.70;;;1.23;;
38783;SDS011;24531;45.502;12.238;2022-11-23T02:01:01;1.88;;;1.00;;
38783;SDS011;24531;45.502;12.238;2022-11-23T02:03:27;1.23;;;0.77;;
38783;SDS011;24531;45.502;12.238;2022-11-23T02:05:55;1.25;;;1.08;;
38783;SDS011;24531;45.502;12.238;2022-11-23T02:08:26;1.40;;;0.90;;
38783;SDS011;24531;45.502;12.238;2022-11-23T02:10:53;2.63;;;0.98;;
38783;SDS011;24531;45.502;12.238;2022-11-23T02:13:21;1.63;;;0.90;;
38783;SDS011;24531;45.502;12.238;2022-11-23T02:15:49;1.20;;;1.00;;
38783;SDS011;24531;45.502;12.238;2022-11-23T02:18:16;1.33;;;0.88;;
38783;SDS011;24531;45.502;12.238;2022-11-23T02:20:45;2.05;;;1.13;;
38783;SDS011;24531;45.502;12.238;2022-11-23T02:25:59;2.10;;;1.15;;
38783;SDS011;24531;45.502;12.238;2022-11-23T02:28:28;12.18;;;2.00;;
38783;SDS011;24531;45.502;12.238;2022-11-23T02:31:09;2.38;;;1.05;;
38783;SDS011;24531;45.502;12.238;2022-11-23T02:33:38;1.20;;;1.10;;
38783;SDS011;24531;45.502;12.238;2022-11-23T02:36:26;1.20;;;1.00;;
38783;SDS011;24531;45.502;12.238;2022-11-23T02:38:55;1.40;;;1.08;;
38783;SDS011;24531;45.502;12.238;2022-11-23T02:41:23;1.60;;;0.90;;
38783;SDS011;24531;45.502;12.238;2022-11-23T02:43:49;2.50;;;1.08;;
38783;SDS011;24531;45.502;12.238;2022-11-23T02:46:18;1.00;;;0.90;;
38783;SDS011;24531;45.502;12.238;2022-11-23T02:48:44;2.20;;;1.27;;
38783;SDS011;24531;45.502;12.238;2022-11-23T02:51:10;1.70;;;1.20;;
38783;SDS011;24531;45.502;12.238;2022-11-23T02:53:35;1.02;;;0.90;;
38783;SDS011;24531;45.502;12.238;2022-11-23T02:56:01;1.60;;;1.15;;
38783;SDS011;24531;45.502;12.238;2022-11-23T02:58:26;1.85;;;1.23;;
38783;SDS011;24531;45.502;12.238;2022-11-23T03:00:52;1.90;;;1.15;;
38783;SDS011;24531;45.502;12.238;2022-11-23T03:03:17;1.63;;;1.15;;
38783;SDS011;24531;45.502;12.238;2022-11-23T03:05:43;2.15;;;1.55;;
38783;SDS011;24531;45.502;12.238;2022-11-23T03:08:09;1.50;;;1.40;;
38783;SDS011;24531;45.502;12.238;2022-11-23T03:10:34;3.72;;;1.27;;
38783;SDS011;24531;45.502;12.238;2022-11-23T03:13:00;1.30;;;1.13;;
38783;SDS011;24531;45.502;12.238;2022-11-23T03:15:26;2.58;;;1.20;;
38783;SDS011;24531;45.502;12.238;2022-11-23T03:17:52;2.08;;;1.42;;
38783;SDS011;24531;45.502;12.238;2022-11-23T03:20:18;4.35;;;1.23;;
38783;SDS011;24531;45.502;12.238;2022-11-23T03:22:43;2.03;;;1.30;;
38783;SDS011;24531;45.502;12.238;2022-11-23T03:25:10;1.08;;;0.98;;
38783;SDS011;24531;45.502;12.238;2022-11-23T03:27:36;3.00;;;1.40;;
38783;SDS011;24531;45.502;12.238;2022-11-23T03:30:03;1.50;;;1.33;;
38783;SDS011;24531;45.502;12.238;2022-11-23T03:32:29;2.63;;;1.25;;
38783;SDS011;24531;45.502;12.238;2022-11-23T03:34:54;1.40;;;0.93;;
38783;SDS011;24531;45.502;12.238;2022-11-23T03:37:20;2.03;;;1.23;;
38783;SDS011;24531;45.502;12.238;2022-11-23T03:39:46;1.60;;;1.27;;
38783;SDS011;24531;45.502;12.238;2022-11-23T03:42:11;2.45;;;1.15;;
38783;SDS011;24531;45.502;12.238;2022-11-23T03:44:37;2.38;;;1.15;;
38783;SDS011;24531;45.502;12.238;2022-11-23T03:47:02;1.92;;;1.17;;
38783;SDS011;24531;45.502;12.238;2022-11-23T03:49:28;2.25;;;1.30;;
38783;SDS011;24531;45.502;12.238;2022-11-23T03:51:54;2.13;;;1.38;;
38783;SDS011;24531;45.502;12.238;2022-11-23T03:54:19;1.95;;;1.50;;
38783;SDS011;24531;45.502;12.238;2022-11-23T03:56:45;3.03;;;1.55;;
38783;SDS011;24531;45.502;12.238;2022-11-23T03:59:10;2.55;;;1.30;;
38783;SDS011;24531;45.502;12.238;2022-11-23T04:01:36;2.60;;;1.50;;
38783;SDS011;24531;45.502;12.238;2022-11-23T04:04:02;2.97;;;1.63;;
38783;SDS011;24531;45.502;12.238;2022-11-23T04:06:27;2.58;;;1.52;;
38783;SDS011;24531;45.502;12.238;2022-11-23T04:08:53;2.70;;;1.73;;
38783;SDS011;24531;45.502;12.238;2022-11-23T04:11:18;2.05;;;1.73;;
38783;SDS011;24531;45.502;12.238;2022-11-23T04:13:44;3.50;;;1.88;;
38783;SDS011;24531;45.502;12.238;2022-11-23T04:16:10;3.08;;;2.08;;
38783;SDS011;24531;45.502;12.238;2022-11-23T04:18:35;2.17;;;1.50;;
38783;SDS011;24531;45.502;12.238;2022-11-23T04:21:01;2.53;;;1.80;;
38783;SDS011;24531;45.502;12.238;2022-11-23T04:23:27;3.38;;;2.40;;
38783;SDS011;24531;45.502;12.238;2022-11-23T04:25:52;3.22;;;2.25;;
38783;SDS011;24531;45.502;12.238;2022-11-23T04:28:18;3.60;;;2.70;;
38783;SDS011;24531;45.502;12.238;2022-11-23T04:30:44;3.10;;;2.35;;
38783;SDS011;24531;45.502;12.238;2022-11-23T04:33:09;3.92;;;2.28;;
38783;SDS011;24531;45.502;12.238;2022-11-23T04:35:35;3.70;;;2.47;;
38783;SDS011;24531;45.502;12.238;2022-11-23T04:38:01;3.42;;;2.10;;
38783;SDS011;24531;45.502;12.238;2022-11-23T04:40:27;5.00;;;2.53;;
38783;SDS011;24531;45.502;12.238;2022-11-23T04:42:53;3.83;;;2.42;;
38783;SDS011;24531;45.502;12.238;2022-11-23T04:45:18;3.33;;;2.58;;
38783;SDS011;24531;45.502;12.238;2022-11-23T04:47:44;5.40;;;2.40;;
38783;SDS011;24531;45.502;12.238;2022-11-23T04:50:10;4.10;;;2.72;;
38783;SDS011;24531;45.502;12.238;2022-11-23T04:52:35;5.10;;;3.00;;
38783;SDS011;24531;45.502;12.238;2022-11-23T04:55:01;3.90;;;2.78;;
38783;SDS011;24531;45.502;12.238;2022-11-23T04:57:26;4.53;;;2.80;;
38783;SDS011;24531;45.502;12.238;2022-11-23T04:59:52;4.20;;;2.97;;
38783;SDS011;24531;45.502;12.238;2022-11-23T05:02:18;5.22;;;2.88;;
38783;SDS011;24531;45.502;12.238;2022-11-23T05:04:43;3.85;;;2.88;;
38783;SDS011;24531;45.502;12.238;2022-11-23T05:07:09;4.03;;;2.75;;
38783;SDS011;24531;45.502;12.238;2022-11-23T05:09:34;6.88;;;3.20;;
38783;SDS011;24531;45.502;12.238;2022-11-23T05:12:00;4.20;;;3.10;;
38783;SDS011;24531;45.502;12.238;2022-11-23T05:14:26;7.15;;;3.13;;
38783;SDS011;24531;45.502;12.238;2022-11-23T05:16:51;5.18;;;3.45;;
38783;SDS011;24531;45.502;12.238;2022-11-23T05:19:17;7.25;;;3.50;;
38783;SDS011;24531;45.502;12.238;2022-11-23T05:21:42;7.40;;;3.97;;
38783;SDS011;24531;45.502;12.238;2022-11-23T05:24:08;4.90;;;3.55;;
38783;SDS011;24531;45.502;12.238;2022-11-23T05:26:33;5.00;;;3.50;;
38783;SDS011;24531;45.502;12.238;2022-11-23T05:28:59;4.78;;;3.83;;
38783;SDS011;24531;45.502;12.238;2022-11-23T05:31:25;5.90;;;4.30;;
38783;SDS011;24531;45.502;12.238;2022-11-23T05:33:50;4.75;;;4.00;;
38783;SDS011;24531;45.502;12.238;2022-11-23T05:36:16;4.80;;;4.20;;
38783;SDS011;24531;45.502;12.238;2022-11-23T05:38:41;5.65;;;4.25;;
38783;SDS011;24531;45.502;12.238;2022-11-23T05:41:07;9.18;;;5.13;;
38783;SDS011;24531;45.502;12.238;2022-11-23T05:43:33;68.13;;;34.00;;
38783;SDS011;24531;45.502;12.238;2022-11-23T05:45:59;98.35;;;46.65;;
38783;SDS011;24531;45.502;12.238;2022-11-23T05:48:25;111.03;;;55.03;;
38783;SDS011;24531;45.502;12.238;2022-11-23T05:50:51;91.78;;;44.65;;
38783;SDS011;24531;45.502;12.238;2022-11-23T05:53:17;68.47;;;34.28;;
38783;SDS011;24531;45.502;12.238;2022-11-23T05:55:42;49.00;;;25.55;;
38783;SDS011;24531;45.502;12.238;2022-11-23T05:58:08;26.60;;;16.45;;
38783;SDS011;24531;45.502;12.238;2022-11-23T06:00:33;17.45;;;10.07;;
38783;SDS011;24531;45.502;12.238;2022-11-23T06:03:00;11.43;;;7.70;;
38783;SDS011;24531;45.502;12.238;2022-11-23T06:05:26;9.52;;;6.55;;
38783;SDS011;24531;45.502;12.238;2022-11-23T06:07:52;12.65;;;9.57;;
38783;SDS011;24531;45.502;12.238;2022-11-23T06:10:18;18.42;;;14.25;;
38783;SDS011;24531;45.502;12.238;2022-11-23T06:12:44;12.30;;;9.38;;
38783;SDS011;24531;45.502;12.238;2022-11-23T06:15:10;11.52;;;8.57;;
38783;SDS011;24531;45.502;12.238;2022-11-23T06:17:36;13.00;;;7.93;;
38783;SDS011;24531;45.502;12.238;2022-11-23T06:20:03;10.15;;;7.00;;
38783;SDS011;24531;45.502;12.238;2022-11-23T06:22:30;8.57;;;6.95;;
38783;SDS011;24531;45.502;12.238;2022-11-23T06:24:56;13.27;;;9.38;;
38783;SDS011;24531;45.502;12.238;2022-11-23T06:27:21;11.70;;;7.85;;
38783;SDS011;24531;45.502;12.238;2022-11-23T06:29:47;11.70;;;8.38;;
38783;SDS011;24531;45.502;12.238;2022-11-23T06:32:13;12.60;;;9.20;;
38783;SDS011;24531;45.502;12.238;2022-11-23T06:34:39;14.68;;;10.57;;
38783;SDS011;24531;45.502;12.238;2022-11-23T06:37:04;15.45;;;9.52;;
38783;SDS011;24531;45.502;12.238;2022-11-23T06:39:30;12.95;;;8.73;;
38783;SDS011;24531;45.502;12.238;2022-11-23T06:41:56;12.35;;;10.02;;
38783;SDS011;24531;45.502;12.238;2022-11-23T06:44:21;11.60;;;9.73;;
38783;SDS011;24531;45.502;12.238;2022-11-23T06:46:47;17.67;;;10.95;;
38783;SDS011;24531;45.502;12.238;2022-11-23T06:49:12;18.00;;;10.65;;
38783;SDS011;24531;45.502;12.238;2022-11-23T06:51:38;11.43;;;9.05;;
38783;SDS011;24531;45.502;12.238;2022-11-23T06:54:04;18.63;;;13.10;;
38783;SDS011;24531;45.502;12.238;2022-11-23T06:56:30;15.55;;;10.25;;
38783;SDS011;24531;45.502;12.238;2022-11-23T06:58:56;17.80;;;12.75;;
38783;SDS011;24531;45.502;12.238;2022-11-23T07:01:21;66.80;;;36.97;;
38783;SDS011;24531;45.502;12.238;2022-11-23T07:03:47;41.63;;;22.75;;
38783;SDS011;24531;45.502;12.238;2022-11-23T07:06:12;52.13;;;28.50;;
38783;SDS011;24531;45.502;12.238;2022-11-23T07:08:38;30.73;;;17.95;;
38783;SDS011;24531;45.502;12.238;2022-11-23T07:11:08;87.88;;;44.08;;
38783;SDS011;24531;45.502;12.238;2022-11-23T07:13:35;89.40;;;42.60;;
38783;SDS011;24531;45.502;12.238;2022-11-23T07:16:01;51.45;;;25.80;;
38783;SDS011;24531;45.502;12.238;2022-11-23T07:18:27;35.42;;;19.73;;
38783;SDS011;24531;45.502;12.238;2022-11-23T07:20:53;52.70;;;24.98;;
38783;SDS011;24531;45.502;12.238;2022-11-23T07:23:22;67.68;;;32.13;;
38783;SDS011;24531;45.502;12.238;2022-11-23T07:25:47;56.63;;;29.45;;
38783;SDS011;24531;45.502;12.238;2022-11-23T07:28:13;45.17;;;23.38;;
38783;SDS011;24531;45.502;12.238;2022-11-23T07:30:39;47.50;;;21.67;;
38783;SDS011;24531;45.502;12.238;2022-11-23T07:33:05;29.58;;;16.80;;
38783;SDS011;24531;45.502;12.238;2022-11-23T07:35:32;28.60;;;16.20;;
38783;SDS011;24531;45.502;12.238;2022-11-23T07:37:59;25.98;;;15.35;;
38783;SDS011;24531;45.502;12.238;2022-11-23T07:40:26;25.60;;;15.90;;
38783;SDS011;24531;45.502;12.238;2022-11-23T07:42:52;24.27;;;15.40;;
38783;SDS011;24531;45.502;12.238;2022-11-23T07:45:22;21.15;;;14.65;;
38783;SDS011;24531;45.502;12.238;2022-11-23T07:47:55;21.70;;;15.38;;
38783;SDS011;24531;45.502;12.238;2022-11-23T07:50:25;20.45;;;14.57;;
38783;SDS011;24531;45.502;12.238;2022-11-23T07:52:51;19.63;;;14.38;;
38783;SDS011;24531;45.502;12.238;2022-11-23T07:55:17;19.70;;;13.85;;
38783;SDS011;24531;45.502;12.238;2022-11-23T07:57:42;19.25;;;13.98;;
38783;SDS011;24531;45.502;12.238;2022-11-23T08:00:08;20.45;;;15.05;;
38783;SDS011;24531;45.502;12.238;2022-11-23T08:02:34;16.73;;;11.65;;
38783;SDS011;24531;45.502;12.238;2022-11-23T08:04:59;17.23;;;12.98;;
38783;SDS011;24531;45.502;12.238;2022-11-23T08:07:25;17.10;;;12.43;;
38783;SDS011;24531;45.502;12.238;2022-11-23T08:09:51;15.18;;;11.82;;
38783;SDS011;24531;45.502;12.238;2022-11-23T08:12:16;15.02;;;11.45;;
38783;SDS011;24531;45.502;12.238;2022-11-23T08:14:42;14.57;;;11.45;;
38783;SDS011;24531;45.502;12.238;2022-11-23T08:17:07;16.40;;;12.15;;
38783;SDS011;24531;45.502;12.238;2022-11-23T08:19:34;17.42;;;11.60;;
38783;SDS011;24531;45.502;12.238;2022-11-23T08:22:00;18.55;;;12.77;;
38783;SDS011;24531;45.502;12.238;2022-11-23T08:24:25;16.60;;;11.77;;
38783;SDS011;24531;45.502;12.238;2022-11-23T08:26:51;15.27;;;11.73;;
38783;SDS011;24531;45.502;12.238;2022-11-23T08:29:16;15.63;;;12.15;;
38783;SDS011;24531;45.502;12.238;2022-11-23T08:31:42;18.58;;;12.70;;
38783;SDS011;24531;45.502;12.238;2022-11-23T08:34:08;20.85;;;15.18;;
38783;SDS011;24531;45.502;12.238;2022-11-23T08:36:33;19.70;;;15.23;;
38783;SDS011;24531;45.502;12.238;2022-11-23T08:38:59;18.55;;;13.50;;
38783;SDS011;24531;45.502;12.238;2022-11-23T08:41:24;20.77;;;13.90;;
38783;SDS011;24531;45.502;12.238;2022-11-23T08:43:51;17.88;;;13.23;;
38783;SDS011;24531;45.502;12.238;2022-11-23T08:46:17;16.60;;;13.27;;
38783;SDS011;24531;45.502;12.238;2022-11-23T08:48:43;15.75;;;11.77;;
38783;SDS011;24531;45.502;12.238;2022-11-23T08:51:09;19.13;;;13.57;;
38783;SDS011;24531;45.502;12.238;2022-11-23T08:53:35;16.30;;;13.50;;
38783;SDS011;24531;45.502;12.238;2022-11-23T08:56:01;16.95;;;11.73;;
38783;SDS011;24531;45.502;12.238;2022-11-23T08:58:28;12.63;;;10.45;;
38783;SDS011;24531;45.502;12.238;2022-11-23T09:00:54;16.83;;;10.65;;
38783;SDS011;24531;45.502;12.238;2022-11-23T09:03:20;19.55;;;11.75;;
38783;SDS011;24531;45.502;12.238;2022-11-23T09:05:46;15.05;;;10.77;;
38783;SDS011;24531;45.502;12.238;2022-11-23T09:08:11;15.77;;;10.68;;
38783;SDS011;24531;45.502;12.238;2022-11-23T09:10:37;13.63;;;10.35;;
38783;SDS011;24531;45.502;12.238;2022-11-23T09:13:03;12.07;;;10.05;;
38783;SDS011;24531;45.502;12.238;2022-11-23T09:15:29;12.82;;;9.60;;
38783;SDS011;24531;45.502;12.238;2022-11-23T09:17:55;12.32;;;9.48;;
38783;SDS011;24531;45.502;12.238;2022-11-23T09:20:21;13.50;;;10.18;;
38783;SDS011;24531;45.502;12.238;2022-11-23T09:22:50;10.90;;;9.55;;
38783;SDS011;24531;45.502;12.238;2022-11-23T09:25:20;11.88;;;9.77;;
38783;SDS011;24531;45.502;12.238;2022-11-23T09:27:46;14.05;;;9.10;;
38783;SDS011;24531;45.502;12.238;2022-11-23T09:30:13;13.55;;;10.77;;
38783;SDS011;24531;45.502;12.238;2022-11-23T09:32:39;15.70;;;9.48;;
38783;SDS011;24531;45.502;12.238;2022-11-23T09:35:05;13.07;;;8.40;;
38783;SDS011;24531;45.502;12.238;2022-11-23T09:37:31;14.98;;;9.43;;
38783;SDS011;24531;45.502;12.238;2022-11-23T09:39:57;14.18;;;10.38;;
38783;SDS011;24531;45.502;12.238;2022-11-23T09:42:44;12.20;;;8.45;;
38783;SDS011;24531;45.502;12.238;2022-11-23T09:48:20;11.38;;;8.27;;
38783;SDS011;24531;45.502;12.238;2022-11-23T09:50:55;10.88;;;7.13;;
38783;SDS011;24531;45.502;12.238;2022-11-23T09:53:54;8.65;;;6.07;;
38783;SDS011;24531;45.502;12.238;2022-11-23T09:56:26;8.13;;;5.82;;
38783;SDS011;24531;45.502;12.238;2022-11-23T09:59:00;12.05;;;5.47;;
38783;SDS011;24531;45.502;12.238;2022-11-23T10:01:29;10.05;;;6.38;;
38783;SDS011;24531;45.502;12.238;2022-11-23T10:03:55;7.70;;;5.60;;
38783;SDS011;24531;45.502;12.238;2022-11-23T10:06:22;6.80;;;5.28;;
38783;SDS011;24531;45.502;12.238;2022-11-23T10:20:04;6.93;;;5.25;;
38783;SDS011;24531;45.502;12.238;2022-11-23T10:22:55;5.50;;;4.60;;
38783;SDS011;24531;45.502;12.238;2022-11-23T10:25:23;7.70;;;5.18;;
38783;SDS011;24531;45.502;12.238;2022-11-23T10:27:53;7.40;;;5.03;;
38783;SDS011;24531;45.502;12.238;2022-11-23T10:30:24;6.25;;;4.97;;
38783;SDS011;24531;45.502;12.238;2022-11-23T10:32:51;7.72;;;5.50;;
38783;SDS011;24531;45.502;12.238;2022-11-23T10:35:29;9.38;;;5.65;;
38783;SDS011;24531;45.502;12.238;2022-11-23T10:40:38;8.43;;;4.65;;
38783;SDS011;24531;45.502;12.238;2022-11-23T10:43:16;7.90;;;4.20;;
38783;SDS011;24531;45.502;12.238;2022-11-23T10:45:46;6.68;;;3.75;;
38783;SDS011;24531;45.502;12.238;2022-11-23T10:48:12;5.75;;;3.45;;
38783;SDS011;24531;45.502;12.238;2022-11-23T10:54:03;4.43;;;3.05;;
38783;SDS011;24531;45.502;12.238;2022-11-23T10:56:44;4.93;;;3.25;;
38783;SDS011;24531;45.502;12.238;2022-11-23T10:59:24;4.43;;;2.20;;
38783;SDS011;24531;45.502;12.238;2022-11-23T11:02:18;5.43;;;2.70;;
38783;SDS011;24531;45.502;12.238;2022-11-23T11:04:46;4.45;;;2.95;;
38783;SDS011;24531;45.502;12.238;2022-11-23T11:07:17;3.80;;;2.40;;
38783;SDS011;24531;45.502;12.238;2022-11-23T11:12:22;5.22;;;3.20;;
38783;SDS011;24531;45.502;12.238;2022-11-23T11:14:59;4.57;;;2.83;;
38783;SDS011;24531;45.502;12.238;2022-11-23T11:17:32;4.90;;;3.05;;
38783;SDS011;24531;45.502;12.238;2022-11-23T11:19:59;4.15;;;2.75;;
38783;SDS011;24531;45.502;12.238;2022-11-23T11:22:31;4.20;;;3.00;;
38783;SDS011;24531;45.502;12.238;2022-11-23T11:24:59;6.22;;;3.00;;
38783;SDS011;24531;45.502;12.238;2022-11-23T11:27:28;3.97;;;3.00;;
38783;SDS011;24531;45.502;12.238;2022-11-23T11:30:05;7.70;;;3.67;;
38783;SDS011;24531;45.502;12.238;2022-11-23T11:35:16;4.25;;;3.30;;
38783;SDS011;24531;45.502;12.238;2022-11-23T11:37:47;4.90;;;3.67;;
38783;SDS011;24531;45.502;12.238;2022-11-23T11:40:27;4.25;;;3.13;;
38783;SDS011;24531;45.502;12.238;2022-11-23T11:42:56;5.40;;;3.35;;
38783;SDS011;24531;45.502;12.238;2022-11-23T11:45:42;3.95;;;2.92;;
38783;SDS011;24531;45.502;12.238;2022-11-23T11:48:13;6.35;;;2.67;;
38783;SDS011;24531;45.502;12.238;2022-11-23T11:50:45;5.03;;;3.67;;
38783;SDS011;24531;45.502;12.238;2022-11-23T11:53:16;4.80;;;3.07;;
38783;SDS011;24531;45.502;12.238;2022-11-23T11:58:30;6.43;;;2.92;;
38783;SDS011;24531;45.502;12.238;2022-11-23T12:00:59;5.75;;;3.20;;
38783;SDS011;24531;45.502;12.238;2022-11-23T12:09:16;5.53;;;3.53;;
38783;SDS011;24531;45.502;12.238;2022-11-23T12:11:46;3.60;;;2.67;;
38783;SDS011;24531;45.502;12.238;2022-11-23T12:14:12;3.65;;;3.00;;
38783;SDS011;24531;45.502;12.238;2022-11-23T12:30:12;3.00;;;2.17;;
38783;SDS011;24531;45.502;12.238;2022-11-23T12:41:00;2.47;;;1.50;;
38783;SDS011;24531;45.502;12.238;2022-11-23T12:46:34;2.13;;;1.52;;
38783;SDS011;24531;45.502;12.238;2022-11-23T12:49:24;2.20;;;1.48;;
38783;SDS011;24531;45.502;12.238;2022-11-23T12:57:42;2.58;;;1.40;;
38783;SDS011;24531;45.502;12.238;2022-11-23T13:00:22;2.15;;;1.58;;
38783;SDS011;24531;45.502;12.238;2022-11-23T13:19:34;3.17;;;2.30;;
38783;SDS011;24531;45.502;12.238;2022-11-23T13:22:10;3.35;;;2.28;;
38783;SDS011;24531;45.502;12.238;2022-11-23T13:24:56;2.97;;;2.05;;
38783;SDS011;24531;45.502;12.238;2022-11-23T13:32:33;2.65;;;1.85;;
38783;SDS011;24531;45.502;12.238;2022-11-23T13:34:59;2.60;;;1.80;;
38783;SDS011;24531;45.502;12.238;2022-11-23T13:37:25;3.13;;;2.05;;
38783;SDS011;24531;45.502;12.238;2022-11-23T13:42:20;3.15;;;2.45;;
38783;SDS011;24531;45.502;12.238;2022-11-23T13:44:48;3.63;;;2.40;;
38783;SDS011;24531;45.502;12.238;2022-11-23T13:48:30;5.03;;;2.10;;
38783;SDS011;24531;45.502;12.238;2022-11-23T13:50:34;7.03;;;2.65;;
38783;SDS011;24531;45.502;12.238;2022-11-23T13:53:02;4.18;;;2.95;;
38783;SDS011;24531;45.502;12.238;2022-11-23T13:55:42;5.20;;;2.78;;
38783;SDS011;24531;45.502;12.238;2022-11-23T14:00:53;3.63;;;2.53;;
38783;SDS011;24531;45.502;12.238;2022-11-23T14:20:29;4.82;;;3.35;;
38783;SDS011;24531;45.502;12.238;2022-11-23T14:29:03;4.90;;;3.58;;
38783;SDS011;24531;45.502;12.238;2022-11-23T14:40:26;3.45;;;2.75;;
38783;SDS011;24531;45.502;12.238;2022-11-23T14:43:01;4.13;;;2.85;;
38783;SDS011;24531;45.502;12.238;2022-11-23T14:45:28;4.55;;;3.10;;
38783;SDS011;24531;45.502;12.238;2022-11-23T14:48:18;4.55;;;3.10;;
38783;SDS011;24531;45.502;12.238;2022-11-23T14:51:04;3.83;;;2.83;;
38783;SDS011;24531;45.502;12.238;2022-11-23T14:53:39;5.25;;;2.78;;
38783;SDS011;24531;45.502;12.238;2022-11-23T14:56:41;2.50;;;2.28;;
38783;SDS011;24531;45.502;12.238;2022-11-23T15:01:27;2.97;;;2.40;;
38783;SDS011;24531;45.502;12.238;2022-11-23T15:03:59;3.90;;;2.75;;
38783;SDS011;24531;45.502;12.238;2022-11-23T15:06:42;4.03;;;2.65;;
38783;SDS011;24531;45.502;12.238;2022-11-23T15:09:32;5.35;;;2.85;;
38783;SDS011;24531;45.502;12.238;2022-11-23T15:12:06;3.80;;;2.65;;
38783;SDS011;24531;45.502;12.238;2022-11-23T15:14:43;3.20;;;2.35;;
38783;SDS011;24531;45.502;12.238;2022-11-23T15:17:12;4.40;;;2.95;;
38783;SDS011;24531;45.502;12.238;2022-11-23T15:19:40;4.78;;;3.28;;
38783;SDS011;24531;45.502;12.238;2022-11-23T15:22:13;4.22;;;2.78;;
38783;SDS011;24531;45.502;12.238;2022-11-23T15:24:42;5.22;;;2.65;;
38783;SDS011;24531;45.502;12.238;2022-11-23T15:27:10;6.07;;;3.00;;
38783;SDS011;24531;45.502;12.238;2022-11-23T15:29:49;4.68;;;3.28;;
38783;SDS011;24531;45.502;12.238;2022-11-23T15:32:20;6.50;;;2.88;;
38783;SDS011;24531;45.502;12.238;2022-11-23T15:34:54;3.30;;;3.00;;
38783;SDS011;24531;45.502;12.238;2022-11-23T15:37:22;7.00;;;3.22;;
38783;SDS011;24531;45.502;12.238;2022-11-23T15:39:51;5.43;;;2.67;;
38783;SDS011;24531;45.502;12.238;2022-11-23T15:42:19;5.60;;;2.83;;
38783;SDS011;24531;45.502;12.238;2022-11-23T15:44:47;4.97;;;3.25;;
38783;SDS011;24531;45.502;12.238;2022-11-23T15:47:15;5.13;;;3.03;;
38783;SDS011;24531;45.502;12.238;2022-11-23T15:49:57;4.07;;;2.78;;
38783;SDS011;24531;45.502;12.238;2022-11-23T15:52:33;5.45;;;2.78;;
38783;SDS011;24531;45.502;12.238;2022-11-23T15:55:01;6.03;;;3.63;;
38783;SDS011;24531;45.502;12.238;2022-11-23T15:57:29;5.47;;;3.30;;
38783;SDS011;24531;45.502;12.238;2022-11-23T15:59:57;7.65;;;3.50;;
38783;SDS011;24531;45.502;12.238;2022-11-23T16:02:25;7.40;;;3.92;;
38783;SDS011;24531;45.502;12.238;2022-11-23T16:07:57;7.93;;;3.47;;
38783;SDS011;24531;45.502;12.238;2022-11-23T16:10:28;4.65;;;2.92;;
38783;SDS011;24531;45.502;12.238;2022-11-23T16:12:58;7.78;;;3.25;;
38783;SDS011;24531;45.502;12.238;2022-11-23T16:18:05;4.45;;;3.30;;
38783;SDS011;24531;45.502;12.238;2022-11-23T16:20:58;5.68;;;3.33;;
38783;SDS011;24531;45.502;12.238;2022-11-23T16:23:27;5.97;;;3.33;;
38783;SDS011;24531;45.502;12.238;2022-11-23T16:26:02;5.07;;;3.53;;
38783;SDS011;24531;45.502;12.238;2022-11-23T16:28:30;6.53;;;4.38;;
38783;SDS011;24531;45.502;12.238;2022-11-23T16:30:58;11.18;;;4.93;;
38783;SDS011;24531;45.502;12.238;2022-11-23T16:33:24;7.32;;;3.75;;
38783;SDS011;24531;45.502;12.238;2022-11-23T16:35:50;9.60;;;4.47;;
38783;SDS011;24531;45.502;12.238;2022-11-23T16:38:16;8.93;;;5.72;;
38783;SDS011;24531;45.502;12.238;2022-11-23T16:40:43;11.50;;;5.75;;
38783;SDS011;24531;45.502;12.238;2022-11-23T16:43:09;14.55;;;5.93;;
38783;SDS011;24531;45.502;12.238;2022-11-23T16:45:40;10.43;;;5.45;;
38783;SDS011;24531;45.502;12.238;2022-11-23T16:50:52;14.20;;;5.95;;
38783;SDS011;24531;45.502;12.238;2022-11-23T16:53:19;10.75;;;6.18;;